createdAt,value
2018-05-13T02:15:07.528Z,34.13
2018-05-13T02:15:08.034Z,33.94
2018-05-13T02:16:20.566Z,35.37
2018-05-13T02:16:21.166Z,35.66
2018-05-13T02:16:21.760Z,35.57
2018-05-13T02:16:22.361Z,35.47
2018-05-13T02:16:22.960Z,35.66
2018-05-13T02:16:23.565Z,35.66
2018-05-13T02:16:24.159Z,35.85
2018-05-13T02:16:24.764Z,35.57
2018-05-13T02:16:25.359Z,35.37
2018-05-13T02:16:25.961Z,35.47
2018-05-13T02:17:27.024Z,37.48
2018-05-13T02:17:27.620Z,37.48
2018-05-13T02:17:28.224Z,37.48
2018-05-13T02:17:28.820Z,37.28
2018-05-13T02:17:29.419Z,37.48
2018-05-13T02:17:30.022Z,37.38
2018-05-13T02:17:30.619Z,37.48
2018-05-13T02:17:31.219Z,37.57
2018-05-13T02:17:31.818Z,37.57
2018-05-13T02:17:32.419Z,37.76
2018-05-13T02:17:33.017Z,37.85
2018-05-13T02:17:33.617Z,37.95
2018-05-13T02:18:27.674Z,36.61
2018-05-13T02:18:28.243Z,36.61
2018-05-13T02:18:28.843Z,36.04
2018-05-13T02:18:29.441Z,36.04
2018-05-13T02:18:30.042Z,36.14
2018-05-13T02:18:30.641Z,36.33
2018-05-13T02:18:31.241Z,35.75
2018-05-13T02:19:25.312Z,33.84
2018-05-13T02:19:25.894Z,33.75
2018-05-13T02:19:26.497Z,33.75
2018-05-13T02:19:27.092Z,33.84
2018-05-13T02:19:27.694Z,33.75
2018-05-13T02:19:28.294Z,33.65
2018-05-13T02:19:28.893Z,33.94
2018-05-13T02:20:22.949Z,33.07
2018-05-13T02:20:23.549Z,33.17
2018-05-13T02:20:24.145Z,33.17
2018-05-13T02:20:24.745Z,32.79
2018-05-13T02:20:25.347Z,32.79
2018-05-13T02:20:25.954Z,32.70
2018-05-13T02:20:26.545Z,32.89
2018-05-13T02:21:20.094Z,31.07
2018-05-13T02:21:20.692Z,31.07
2018-05-13T02:21:21.287Z,30.98
2018-05-13T02:21:21.899Z,30.88
2018-05-13T02:21:22.485Z,31.16
2018-05-13T02:21:23.087Z,31.07
2018-05-13T02:21:23.689Z,31.45
2018-05-13T02:21:24.286Z,31.16
2018-05-13T02:22:18.355Z,31.55
2018-05-13T02:22:18.954Z,31.74
2018-05-13T02:22:19.564Z,31.74
2018-05-13T02:22:20.158Z,31.74
2018-05-13T02:22:20.751Z,31.55
2018-05-13T02:22:21.352Z,31.55
2018-05-13T02:22:21.952Z,31.64
2018-05-13T02:23:15.525Z,32.03
2018-05-13T02:23:16.101Z,31.93
2018-05-13T02:23:16.693Z,32.03
2018-05-13T02:23:17.295Z,32.03
2018-05-13T02:23:17.897Z,32.12
2018-05-13T02:23:18.496Z,32.03
2018-05-13T02:23:19.098Z,32.03
2018-05-13T02:23:19.692Z,31.93
2018-05-13T02:24:13.761Z,30.98
2018-05-13T02:24:14.359Z,30.98
2018-05-13T02:24:14.957Z,30.88
2018-05-13T02:24:15.561Z,30.98
2018-05-13T02:24:16.157Z,30.88
2018-05-13T02:24:16.759Z,30.69
2018-05-13T02:24:17.357Z,30.88
2018-05-13T02:25:11.414Z,31.07
2018-05-13T02:25:12.011Z,31.26
2018-05-13T02:25:12.610Z,30.98
2018-05-13T02:25:13.212Z,31.26
2018-05-13T02:25:13.811Z,31.26
2018-05-13T02:25:14.410Z,31.26
2018-05-13T02:25:15.014Z,31.07
2018-05-13T02:26:09.067Z,31.93
2018-05-13T02:26:09.664Z,32.12
2018-05-13T02:26:10.263Z,32.12
2018-05-13T02:26:10.863Z,32.12
2018-05-13T02:26:11.463Z,31.93
2018-05-13T02:26:12.068Z,32.12
2018-05-13T02:26:12.661Z,32.12
2018-05-13T02:27:06.720Z,33.46
2018-05-13T02:27:07.315Z,33.36
2018-05-13T02:27:07.914Z,33.46
2018-05-13T02:27:08.513Z,33.46
2018-05-13T02:27:09.115Z,33.65
2018-05-13T02:27:09.713Z,33.65
2018-05-13T02:27:10.313Z,33.94
2018-05-13T02:28:04.397Z,33.07
2018-05-13T02:28:04.968Z,33.17
2018-05-13T02:28:05.566Z,33.07
2018-05-13T02:28:06.167Z,33.07
2018-05-13T02:28:06.766Z,33.17
2018-05-13T02:28:07.365Z,32.98
2018-05-13T02:28:07.971Z,33.27
2018-05-13T02:29:02.020Z,32.50
2018-05-13T02:29:02.631Z,32.50
2018-05-13T02:29:03.218Z,32.50
2018-05-13T02:29:03.819Z,32.41
2018-05-13T02:29:04.417Z,32.60
2018-05-13T02:29:05.017Z,32.41
2018-05-13T02:29:05.622Z,32.41
2018-05-13T02:29:59.673Z,32.31
2018-05-13T02:30:00.272Z,32.12
2018-05-13T02:30:00.870Z,32.12
2018-05-13T02:30:01.471Z,32.41
2018-05-13T02:30:02.072Z,32.50
2018-05-13T02:30:02.674Z,32.41
2018-05-13T02:30:03.274Z,32.12
2018-05-13T02:30:56.815Z,31.26
2018-05-13T02:30:57.412Z,30.78
2018-05-13T02:30:58.011Z,31.16
2018-05-13T02:30:58.614Z,30.98
2018-05-13T02:30:59.211Z,30.98
2018-05-13T02:30:59.811Z,30.98
2018-05-13T02:31:00.412Z,30.88
2018-05-13T02:31:01.018Z,30.98
2018-05-13T02:31:55.080Z,30.30
2018-05-13T02:31:55.678Z,30.69
2018-05-13T02:31:56.279Z,30.30
2018-05-13T02:31:56.880Z,30.30
2018-05-13T02:31:57.475Z,30.49
2018-05-13T02:31:58.075Z,30.49
2018-05-13T02:31:58.683Z,30.49
2018-05-13T02:32:52.768Z,31.35
2018-05-13T02:32:53.327Z,31.55
2018-05-13T02:32:53.930Z,31.26
2018-05-13T02:32:54.531Z,31.55
2018-05-13T02:32:55.130Z,31.35
2018-05-13T02:32:55.728Z,31.45
2018-05-13T02:32:56.331Z,31.26
2018-05-13T02:33:50.385Z,31.45
2018-05-13T02:33:50.987Z,31.45
2018-05-13T02:33:51.584Z,31.64
2018-05-13T02:33:52.184Z,31.55
2018-05-13T02:33:52.784Z,31.45
2018-05-13T02:33:53.380Z,31.55
2018-05-13T02:33:53.979Z,31.64
2018-05-13T02:34:48.037Z,32.21
2018-05-13T02:34:48.632Z,32.21
2018-05-13T02:34:49.231Z,32.21
2018-05-13T02:34:49.833Z,32.12
2018-05-13T02:34:50.431Z,32.03
2018-05-13T02:34:51.031Z,32.21
2018-05-13T02:34:51.636Z,32.12
2018-05-13T02:35:45.685Z,32.41
2018-05-13T02:35:46.282Z,32.41
2018-05-13T02:35:46.882Z,32.42
2018-05-13T02:35:47.483Z,32.42
2018-05-13T02:35:48.082Z,32.21
2018-05-13T02:35:48.683Z,32.12
2018-05-13T02:35:49.288Z,31.76
2018-05-13T02:36:43.337Z,30.98
2018-05-13T02:36:43.934Z,30.99
2018-05-13T02:36:44.535Z,31.07
2018-05-13T02:36:45.137Z,31.07
2018-05-13T02:36:45.736Z,31.26
2018-05-13T02:36:46.336Z,30.88
2018-05-13T02:36:46.937Z,31.07
2018-05-13T02:37:40.993Z,32.41
2018-05-13T02:37:41.587Z,32.52
2018-05-13T02:37:42.188Z,32.42
2018-05-13T02:37:42.786Z,32.42
2018-05-13T02:37:43.385Z,32.21
2018-05-13T02:37:43.987Z,32.33
2018-05-13T02:37:44.590Z,32.42
2018-05-13T02:38:38.669Z,32.14
2018-05-13T02:38:39.241Z,32.33
2018-05-13T02:38:39.839Z,32.33
2018-05-13T02:38:40.440Z,32.14
2018-05-13T02:38:41.038Z,32.42
2018-05-13T02:38:41.639Z,32.33
2018-05-13T02:38:42.242Z,31.66
2018-05-13T02:39:36.297Z,32.71
2018-05-13T02:39:36.890Z,32.71
2018-05-13T02:39:37.489Z,32.90
2018-05-13T02:39:38.090Z,33.00
2018-05-13T02:39:38.689Z,32.90
2018-05-13T02:39:39.290Z,32.81
2018-05-13T02:39:39.965Z,32.90
2018-05-13T02:40:33.944Z,32.81
2018-05-13T02:40:34.587Z,32.71
2018-05-13T02:40:35.146Z,32.71
2018-05-13T02:40:35.745Z,32.71
2018-05-13T02:40:36.341Z,32.71
2018-05-13T02:40:36.941Z,32.81
2018-05-13T02:40:37.546Z,32.90
2018-05-13T02:41:31.598Z,32.90
2018-05-13T02:41:32.194Z,33.09
2018-05-13T02:41:32.794Z,32.81
2018-05-13T02:41:33.393Z,32.90
2018-05-13T02:41:33.994Z,32.90
2018-05-13T02:41:34.605Z,32.81
2018-05-13T02:41:35.199Z,32.81
2018-05-13T02:42:29.261Z,33.86
2018-05-13T02:42:29.846Z,33.57
2018-05-13T02:42:30.445Z,33.57
2018-05-13T02:42:31.048Z,33.86
2018-05-13T02:42:31.645Z,33.57
2018-05-13T02:42:32.253Z,33.67
2018-05-13T02:42:32.848Z,33.95
2018-05-13T02:43:26.928Z,32.71
2018-05-13T02:43:27.501Z,32.71
2018-05-13T02:43:28.101Z,32.71
2018-05-13T02:43:28.697Z,32.71
2018-05-13T02:43:29.297Z,32.81
2018-05-13T02:43:29.898Z,32.81
2018-05-13T02:43:30.501Z,32.90
2018-05-13T02:44:24.125Z,34.24
2018-05-13T02:44:24.638Z,34.14
2018-05-13T02:44:25.240Z,34.05
2018-05-13T02:44:25.838Z,33.95
2018-05-13T02:44:26.437Z,34.14
2018-05-13T02:44:27.037Z,33.95
2018-05-13T02:44:27.640Z,34.05
2018-05-13T02:44:28.238Z,34.14
2018-05-13T02:45:22.309Z,34.53
2018-05-13T02:45:22.902Z,34.53
2018-05-13T02:45:23.504Z,34.14
2018-05-13T02:45:24.102Z,34.14
2018-05-13T02:45:24.702Z,34.63
2018-05-13T02:45:25.304Z,34.43
2018-05-13T02:45:25.914Z,34.34
2018-05-13T02:46:19.958Z,34.34
2018-05-13T02:46:20.636Z,34.24
2018-05-13T02:46:21.154Z,34.24
2018-05-13T02:46:21.757Z,34.05
2018-05-13T02:46:22.356Z,34.05
2018-05-13T02:46:22.955Z,34.05
2018-05-13T02:46:23.558Z,34.24
2018-05-13T02:47:17.611Z,35.96
2018-05-13T02:47:18.214Z,36.63
2018-05-13T02:47:18.810Z,36.44
2018-05-13T02:47:19.408Z,36.44
2018-05-13T02:47:20.007Z,36.25
2018-05-13T02:47:20.606Z,36.35
2018-05-13T02:47:21.210Z,36.25
2018-05-13T02:48:15.259Z,36.92
2018-05-13T02:48:15.860Z,36.82
2018-05-13T02:48:16.468Z,36.92
2018-05-13T02:48:17.058Z,36.73
2018-05-13T02:48:17.657Z,36.82
2018-05-13T02:48:18.261Z,37.02
2018-05-13T02:48:18.856Z,36.92
2018-05-13T02:49:12.939Z,37.02
2018-05-13T02:49:13.510Z,37.02
2018-05-13T02:49:14.109Z,36.92
2018-05-13T02:49:14.709Z,37.02
2018-05-13T02:49:15.312Z,37.02
2018-05-13T02:49:15.910Z,37.02
2018-05-13T02:49:16.512Z,37.11
2018-05-13T02:50:10.566Z,36.63
2018-05-13T02:50:11.162Z,36.54
2018-05-13T02:50:11.761Z,36.54
2018-05-13T02:50:12.365Z,36.73
2018-05-13T02:50:12.961Z,36.54
2018-05-13T02:50:13.564Z,36.63
2018-05-13T02:50:14.163Z,36.54
2018-05-13T02:51:08.216Z,36.82
2018-05-13T02:51:08.813Z,36.82
2018-05-13T02:51:09.413Z,36.82
2018-05-13T02:51:10.015Z,36.82
2018-05-13T02:51:10.613Z,36.82
2018-05-13T02:51:11.217Z,36.82
2018-05-13T02:51:11.816Z,36.82
2018-05-13T02:52:05.867Z,37.02
2018-05-13T02:52:06.465Z,36.82
2018-05-13T02:52:07.071Z,37.11
2018-05-13T02:52:07.664Z,37.11
2018-05-13T02:52:08.269Z,36.73
2018-05-13T02:52:08.864Z,36.82
2018-05-13T02:52:09.466Z,36.73
2018-05-13T02:53:03.526Z,37.02
2018-05-13T02:53:04.117Z,37.11
2018-05-13T02:53:04.717Z,37.11
2018-05-13T02:53:05.316Z,37.02
2018-05-13T02:53:05.916Z,37.11
2018-05-13T02:53:06.517Z,37.02
2018-05-13T02:53:07.120Z,37.11
2018-05-13T02:54:00.690Z,37.40
2018-05-13T02:54:01.257Z,37.30
2018-05-13T02:54:01.861Z,37.30
2018-05-13T02:54:02.460Z,37.49
2018-05-13T02:54:03.057Z,37.30
2018-05-13T02:54:03.658Z,37.40
2018-05-13T02:54:04.258Z,37.30
2018-05-13T02:54:04.857Z,37.30
2018-05-13T02:54:58.925Z,37.49
2018-05-13T02:54:59.521Z,37.59
2018-05-13T02:55:00.138Z,38.07
2018-05-13T02:55:00.736Z,37.59
2018-05-13T02:55:01.321Z,37.68
2018-05-13T02:55:01.920Z,37.97
2018-05-13T02:55:02.524Z,37.78
2018-05-13T02:55:56.577Z,38.17
2018-05-13T02:55:57.176Z,38.09
2018-05-13T02:55:57.776Z,37.97
2018-05-13T02:55:58.374Z,38.07
2018-05-13T02:55:58.973Z,38.17
2018-05-13T02:55:59.574Z,37.97
2018-05-13T02:56:00.176Z,37.88
2018-05-13T02:56:55.255Z,37.78
2018-05-13T02:56:55.851Z,37.97
2018-05-13T02:56:56.451Z,37.88
2018-05-13T02:56:57.051Z,38.07
2018-05-13T02:56:57.651Z,38.17
2018-05-13T02:56:58.250Z,37.97
2018-05-13T02:57:52.803Z,38.56
2018-05-13T02:57:53.401Z,38.45
2018-05-13T02:57:54.001Z,38.54
2018-05-13T02:57:54.599Z,38.64
2018-05-13T02:57:55.201Z,38.64
2018-05-13T02:57:55.800Z,38.93
2018-05-13T02:57:56.407Z,38.83
2018-05-13T02:58:50.488Z,37.11
2018-05-13T02:58:51.051Z,37.11
2018-05-13T02:58:51.654Z,37.02
2018-05-13T02:58:52.254Z,37.02
2018-05-13T02:58:52.873Z,37.02
2018-05-13T02:58:53.451Z,37.02
2018-05-13T02:58:54.052Z,37.02
2018-05-13T02:59:48.171Z,37.68
2018-05-13T02:59:48.704Z,37.78
2018-05-13T02:59:49.307Z,37.88
2018-05-13T02:59:49.905Z,37.68
2018-05-13T02:59:50.504Z,37.68
2018-05-13T02:59:51.102Z,37.68
2018-05-13T02:59:51.707Z,37.88
2018-05-13T03:00:45.759Z,37.11
2018-05-13T03:00:46.359Z,37.13
2018-05-13T03:00:46.959Z,37.11
2018-05-13T03:00:47.561Z,37.11
2018-05-13T03:00:48.156Z,37.04
2018-05-13T03:00:48.755Z,37.11
2018-05-13T03:00:49.356Z,37.21
2018-05-13T03:01:43.410Z,36.35
2018-05-13T03:01:44.007Z,36.25
2018-05-13T03:01:44.612Z,36.46
2018-05-13T03:01:45.209Z,36.35
2018-05-13T03:01:45.807Z,36.15
2018-05-13T03:01:46.407Z,36.15
2018-05-13T03:01:47.008Z,36.15
2018-05-13T03:02:40.549Z,37.59
2018-05-13T03:02:41.149Z,37.88
2018-05-13T03:02:41.748Z,37.68
2018-05-13T03:02:42.348Z,37.88
2018-05-13T03:02:42.966Z,37.88
2018-05-13T03:02:43.546Z,37.88
2018-05-13T03:02:44.147Z,37.88
2018-05-13T03:02:44.748Z,37.88
2018-05-13T03:03:39.737Z,37.68
2018-05-13T03:03:40.333Z,38.35
2018-05-13T03:03:40.933Z,38.07
2018-05-13T03:03:41.536Z,37.90
2018-05-13T03:03:42.135Z,38.17
2018-05-13T03:03:42.733Z,37.78
2018-05-13T03:04:37.312Z,37.02
2018-05-13T03:04:37.883Z,37.02
2018-05-13T03:04:38.483Z,37.23
2018-05-13T03:04:39.084Z,37.32
2018-05-13T03:04:39.682Z,37.32
2018-05-13T03:04:40.282Z,37.21
2018-05-13T03:04:40.899Z,37.21
2018-05-13T03:05:34.938Z,36.55
2018-05-13T03:05:35.536Z,36.75
2018-05-13T03:05:36.135Z,36.84
2018-05-13T03:05:36.733Z,36.84
2018-05-13T03:05:37.334Z,36.94
2018-05-13T03:05:37.936Z,36.75
2018-05-13T03:05:38.536Z,36.65
2018-05-13T03:06:32.592Z,36.84
2018-05-13T03:06:33.188Z,36.84
2018-05-13T03:06:33.786Z,36.84
2018-05-13T03:06:34.392Z,36.84
2018-05-13T03:06:34.987Z,36.84
2018-05-13T03:06:35.586Z,37.04
2018-05-13T03:06:36.187Z,36.75
2018-05-13T03:07:30.241Z,37.99
2018-05-13T03:07:30.841Z,37.90
2018-05-13T03:07:31.441Z,37.51
2018-05-13T03:07:32.040Z,37.70
2018-05-13T03:07:32.642Z,37.61
2018-05-13T03:07:33.242Z,37.80
2018-05-13T03:07:33.839Z,37.51
2018-05-13T03:08:27.903Z,38.09
2018-05-13T03:08:28.490Z,38.18
2018-05-13T03:08:29.091Z,38.09
2018-05-13T03:08:29.692Z,38.18
2018-05-13T03:08:30.290Z,37.99
2018-05-13T03:08:30.895Z,37.99
2018-05-13T03:08:31.501Z,37.90
2018-05-13T03:09:26.492Z,38.66
2018-05-13T03:09:27.065Z,38.76
2018-05-13T03:09:27.662Z,38.85
2018-05-13T03:09:28.263Z,38.76
2018-05-13T03:09:28.863Z,38.66
2018-05-13T03:09:29.462Z,38.56
2018-05-13T03:10:24.017Z,37.70
2018-05-13T03:10:24.613Z,37.61
2018-05-13T03:10:25.210Z,37.80
2018-05-13T03:10:25.838Z,37.70
2018-05-13T03:10:26.412Z,37.90
2018-05-13T03:10:27.014Z,37.70
2018-05-13T03:10:27.614Z,37.80
2018-05-13T03:11:21.665Z,37.99
2018-05-13T03:11:22.266Z,37.99
2018-05-13T03:11:22.865Z,37.99
2018-05-13T03:11:23.467Z,37.90
2018-05-13T03:11:24.064Z,37.99
2018-05-13T03:11:24.664Z,37.90
2018-05-13T03:11:25.269Z,37.99
2018-05-13T03:29:50.787Z,38.17
2018-05-13T03:29:51.358Z,38.07
2018-05-13T03:29:51.957Z,38.07
2018-05-13T03:29:52.556Z,38.09
2018-05-13T03:29:53.156Z,37.88
2018-05-13T03:29:53.756Z,37.80
2018-05-13T03:29:54.357Z,37.78
2018-05-13T03:30:48.413Z,38.35
2018-05-13T03:30:49.010Z,38.35
2018-05-13T03:30:49.607Z,38.26
2018-05-13T03:30:50.216Z,38.26
2018-05-13T03:30:50.810Z,38.26
2018-05-13T03:30:51.410Z,38.28
2018-05-13T03:30:52.010Z,38.35
2018-05-13T03:31:46.065Z,37.49
2018-05-13T03:31:46.667Z,37.97
2018-05-13T03:31:47.262Z,38.07
2018-05-13T03:31:47.861Z,38.07
2018-05-13T03:31:48.461Z,37.88
2018-05-13T03:31:49.061Z,37.88
2018-05-13T03:31:49.659Z,37.59
2018-05-13T03:32:43.207Z,36.82
2018-05-13T03:32:43.801Z,36.92
2018-05-13T03:32:44.405Z,36.82
2018-05-13T03:32:45.002Z,36.73
2018-05-13T03:32:45.603Z,37.11
2018-05-13T03:32:46.202Z,36.73
2018-05-13T03:32:46.801Z,36.73
2018-05-13T03:32:47.405Z,36.35
2018-05-13T03:33:41.470Z,35.29
2018-05-13T03:33:42.069Z,35.20
2018-05-13T03:33:42.667Z,35.39
2018-05-13T03:33:43.267Z,35.20
2018-05-13T03:33:43.868Z,35.20
2018-05-13T03:33:44.466Z,35.20
2018-05-13T03:33:45.068Z,35.29
2018-05-13T03:34:39.154Z,35.79
2018-05-13T03:34:39.721Z,35.58
2018-05-13T03:34:40.318Z,35.49
2018-05-13T03:34:40.920Z,35.68
2018-05-13T03:34:41.519Z,35.49
2018-05-13T03:34:42.121Z,35.77
2018-05-13T03:34:42.726Z,35.58
2018-05-13T03:35:36.773Z,36.54
2018-05-13T03:35:37.371Z,36.63
2018-05-13T03:35:37.971Z,36.54
2018-05-13T03:35:38.572Z,36.82
2018-05-13T03:35:39.171Z,36.54
2018-05-13T03:35:39.771Z,36.92
2018-05-13T03:35:40.373Z,37.02
2018-05-13T03:36:34.427Z,36.35
2018-05-13T03:36:35.025Z,36.15
2018-05-13T03:36:35.623Z,36.44
2018-05-13T03:36:36.223Z,36.35
2018-05-13T03:36:36.836Z,36.44
2018-05-13T03:36:37.422Z,36.35
2018-05-13T03:36:38.023Z,36.35
2018-05-13T03:37:32.079Z,35.77
2018-05-13T03:37:32.678Z,36.06
2018-05-13T03:37:33.273Z,35.77
2018-05-13T03:37:33.873Z,35.96
2018-05-13T03:37:34.477Z,36.35
2018-05-13T03:37:35.079Z,35.86
2018-05-13T03:37:35.673Z,35.68
2018-05-13T03:38:29.730Z,35.20
2018-05-13T03:38:30.329Z,35.20
2018-05-13T03:38:30.928Z,35.10
2018-05-13T03:38:31.532Z,35.20
2018-05-13T03:38:32.127Z,35.10
2018-05-13T03:38:32.728Z,35.29
2018-05-13T03:38:33.327Z,35.39
2018-05-13T03:39:27.381Z,36.06
2018-05-13T03:39:27.979Z,36.15
2018-05-13T03:39:28.580Z,36.15
2018-05-13T03:39:29.180Z,36.06
2018-05-13T03:39:29.783Z,36.08
2018-05-13T03:39:30.380Z,36.06
2018-05-13T03:39:30.980Z,36.06
2018-05-13T03:40:25.057Z,36.06
2018-05-13T03:40:25.632Z,36.06
2018-05-13T03:40:26.230Z,35.96
2018-05-13T03:40:26.831Z,35.98
2018-05-13T03:40:27.431Z,35.86
2018-05-13T03:40:28.031Z,35.96
2018-05-13T03:40:28.630Z,35.86
2018-05-13T03:41:22.688Z,36.84
2018-05-13T03:41:23.283Z,36.65
2018-05-13T03:41:23.887Z,36.84
2018-05-13T03:41:24.482Z,37.13
2018-05-13T03:41:25.099Z,36.82
2018-05-13T03:41:25.683Z,36.75
2018-05-13T03:41:26.283Z,36.92
2018-05-13T03:42:20.337Z,37.61
2018-05-13T03:42:20.935Z,37.70
2018-05-13T03:42:21.543Z,37.90
2018-05-13T03:42:22.134Z,37.70
2018-05-13T03:42:22.734Z,37.99
2018-05-13T03:42:23.350Z,37.61
2018-05-13T03:42:23.934Z,37.51
2018-05-13T03:43:17.990Z,38.37
2018-05-13T03:43:18.586Z,38.37
2018-05-13T03:43:19.186Z,38.09
2018-05-13T03:43:19.786Z,38.09
2018-05-13T03:43:20.390Z,38.09
2018-05-13T03:43:20.987Z,38.09
2018-05-13T03:43:21.593Z,38.18
2018-05-13T03:44:15.644Z,37.61
2018-05-13T03:44:16.238Z,37.61
2018-05-13T03:44:16.838Z,37.61
2018-05-13T03:44:17.440Z,37.51
2018-05-13T03:44:18.039Z,37.41
2018-05-13T03:44:18.639Z,37.70
2018-05-13T03:44:19.238Z,37.61
2018-05-13T03:45:12.808Z,37.99
2018-05-13T03:45:13.380Z,37.61
2018-05-13T03:45:13.979Z,37.90
2018-05-13T03:45:14.580Z,37.70
2018-05-13T03:45:15.187Z,37.90
2018-05-13T03:45:15.780Z,37.61
2018-05-13T03:45:16.379Z,37.61
2018-05-13T03:45:16.980Z,37.90
2018-05-13T03:46:11.056Z,39.33
2018-05-13T03:46:11.646Z,39.23
2018-05-13T03:46:12.244Z,39.33
2018-05-13T03:46:12.847Z,39.23
2018-05-13T03:46:13.444Z,39.43
2018-05-13T03:46:14.044Z,39.43
2018-05-13T03:46:14.645Z,39.14
2018-05-13T03:47:08.698Z,39.33
2018-05-13T03:47:09.301Z,39.43
2018-05-13T03:47:09.903Z,39.33
2018-05-13T03:47:10.499Z,39.33
2018-05-13T03:47:11.096Z,39.43
2018-05-13T03:47:11.698Z,39.43
2018-05-13T03:47:12.296Z,39.33
2018-05-13T03:48:06.351Z,40.29
2018-05-13T03:48:06.949Z,40.19
2018-05-13T03:48:07.547Z,40.29
2018-05-13T03:48:08.148Z,40.09
2018-05-13T03:48:08.748Z,40.29
2018-05-13T03:48:09.347Z,39.90
2018-05-13T03:48:09.949Z,40.09
2018-05-13T03:49:04.002Z,40.58
2018-05-13T03:49:04.601Z,39.90
2018-05-13T03:49:05.200Z,39.90
2018-05-13T03:49:05.810Z,39.81
2018-05-13T03:49:06.400Z,40.67
2018-05-13T03:49:06.999Z,39.81
2018-05-13T03:49:07.600Z,40.00
2018-05-13T03:50:01.683Z,42.87
2018-05-13T03:50:02.256Z,42.80
2018-05-13T03:50:02.852Z,42.87
2018-05-13T03:50:03.451Z,42.87
2018-05-13T03:50:04.051Z,42.97
2018-05-13T03:50:04.652Z,42.87
2018-05-13T03:50:05.258Z,42.99
2018-05-13T03:50:59.305Z,44.90
2018-05-13T03:50:59.904Z,44.71
2018-05-13T03:51:00.504Z,45.09
2018-05-13T03:51:01.105Z,45.09
2018-05-13T03:51:01.705Z,44.33
2018-05-13T03:51:02.303Z,45.00
2018-05-13T03:51:02.904Z,44.62
2018-05-13T03:51:56.958Z,44.52
2018-05-13T03:51:57.555Z,44.43
2018-05-13T03:51:58.157Z,44.33
2018-05-13T03:51:58.755Z,44.04
2018-05-13T03:51:59.355Z,44.04
2018-05-13T03:51:59.954Z,44.04
2018-05-13T03:52:00.555Z,44.23
2018-05-13T03:52:54.612Z,45.19
2018-05-13T03:52:55.211Z,45.19
2018-05-13T03:52:55.806Z,45.38
2018-05-13T03:52:56.409Z,45.38
2018-05-13T03:52:57.005Z,45.38
2018-05-13T03:52:57.607Z,45.38
2018-05-13T03:52:58.207Z,45.38
2018-05-13T03:53:52.261Z,44.90
2018-05-13T03:53:52.858Z,44.71
2018-05-13T03:53:53.458Z,44.52
2018-05-13T03:53:54.058Z,44.71
2018-05-13T03:53:54.657Z,44.52
2018-05-13T03:53:55.257Z,44.43
2018-05-13T03:53:55.863Z,44.90
2018-05-13T03:54:49.913Z,45.19
2018-05-13T03:54:50.511Z,45.76
2018-05-13T03:54:51.110Z,45.38
2018-05-13T03:54:51.709Z,45.76
2018-05-13T03:54:52.308Z,45.38
2018-05-13T03:54:52.911Z,45.76
2018-05-13T03:54:53.509Z,45.76
2018-05-13T03:55:47.337Z,46.91
2018-05-13T03:55:47.854Z,47.01
2018-05-13T03:55:48.455Z,46.91
2018-05-13T03:55:49.056Z,47.11
2018-05-13T03:55:49.653Z,47.01
2018-05-13T03:55:50.254Z,47.30
2018-05-13T03:55:50.855Z,47.30
2018-05-13T03:55:51.456Z,47.11
2018-05-13T03:56:45.523Z,48.44
2018-05-13T03:56:46.124Z,48.54
2018-05-13T03:56:46.725Z,48.16
2018-05-13T03:56:47.327Z,48.44
2018-05-13T03:56:47.920Z,48.25
2018-05-13T03:56:48.522Z,48.07
2018-05-13T03:56:49.120Z,48.35
2018-05-13T03:57:43.176Z,47.03
2018-05-13T03:57:43.773Z,47.22
2018-05-13T03:57:44.377Z,47.22
2018-05-13T03:57:44.973Z,47.39
2018-05-13T03:57:45.573Z,47.30
2018-05-13T03:57:46.176Z,47.32
2018-05-13T03:57:46.773Z,47.22
2018-05-13T03:58:40.318Z,47.89
2018-05-13T03:58:40.913Z,47.71
2018-05-13T03:58:41.513Z,47.80
2018-05-13T03:58:42.113Z,48.18
2018-05-13T03:58:42.720Z,47.99
2018-05-13T03:58:43.312Z,47.89
2018-05-13T03:58:43.912Z,48.09
2018-05-13T03:58:44.511Z,47.89
2018-05-13T03:59:38.580Z,48.38
2018-05-13T03:59:39.179Z,48.28
2018-05-13T03:59:39.777Z,48.28
2018-05-13T03:59:40.380Z,47.80
2018-05-13T03:59:40.977Z,48.38
2018-05-13T03:59:41.578Z,48.18
2018-05-13T03:59:42.183Z,47.71
2018-05-13T04:00:36.257Z,47.51
2018-05-13T04:00:36.829Z,47.51
2018-05-13T04:00:37.430Z,47.51
2018-05-13T04:00:38.030Z,47.61
2018-05-13T04:00:38.629Z,47.51
2018-05-13T04:00:39.229Z,47.42
2018-05-13T04:00:39.829Z,47.32
2018-05-13T04:01:33.885Z,49.71
2018-05-13T04:01:34.482Z,49.81
2018-05-13T04:01:35.082Z,49.91
2018-05-13T04:01:35.685Z,49.91
2018-05-13T04:01:36.284Z,49.81
2018-05-13T04:01:36.882Z,49.81
2018-05-13T04:01:37.482Z,49.91
2018-05-13T04:02:31.027Z,52.40
2018-05-13T04:02:31.629Z,52.50
2018-05-13T04:02:32.223Z,52.40
2018-05-13T04:02:32.822Z,52.50
2018-05-13T04:02:33.427Z,52.59
2018-05-13T04:02:34.025Z,52.50
2018-05-13T04:02:34.620Z,52.59
2018-05-13T04:02:35.221Z,52.50
2018-05-13T04:03:29.291Z,55.30
2018-05-13T04:03:29.888Z,54.99
2018-05-13T04:03:30.488Z,54.91
2018-05-13T04:03:31.089Z,55.01
2018-05-13T04:03:31.690Z,54.99
2018-05-13T04:03:32.287Z,54.89
2018-05-13T04:03:32.887Z,54.89
2018-05-13T04:04:26.941Z,54.82
2018-05-13T04:04:27.539Z,55.30
2018-05-13T04:04:28.139Z,54.91
2018-05-13T04:04:28.742Z,55.01
2018-05-13T04:04:29.340Z,55.01
2018-05-13T04:04:29.937Z,54.91
2018-05-13T04:04:30.539Z,55.11
2018-05-13T04:05:24.616Z,57.50
2018-05-13T04:05:25.190Z,57.41
2018-05-13T04:05:25.790Z,57.60
2018-05-13T04:05:26.391Z,57.50
2018-05-13T04:05:26.991Z,57.60
2018-05-13T04:05:27.590Z,57.50
2018-05-13T04:05:28.189Z,57.50
2018-05-13T04:06:22.247Z,58.65
2018-05-13T04:06:22.846Z,58.56
2018-05-13T04:06:23.443Z,58.75
2018-05-13T04:06:24.046Z,58.46
2018-05-13T04:06:24.643Z,58.56
2018-05-13T04:06:25.242Z,58.75
2018-05-13T04:06:25.842Z,58.46
2018-05-13T04:07:19.966Z,56.83
2018-05-13T04:07:20.508Z,56.83
2018-05-13T04:07:21.117Z,56.83
2018-05-13T04:07:21.760Z,56.83
2018-05-13T04:07:22.379Z,56.93
2018-05-13T04:07:22.996Z,56.74
2018-05-13T04:07:23.497Z,56.74
2018-05-13T04:08:17.548Z,57.21
2018-05-13T04:08:18.151Z,57.21
2018-05-13T04:08:18.748Z,57.31
2018-05-13T04:08:19.347Z,57.21
2018-05-13T04:08:19.946Z,57.12
2018-05-13T04:08:20.545Z,57.21
2018-05-13T04:08:21.146Z,57.21
2018-05-13T04:09:14.692Z,58.65
2018-05-13T04:09:15.288Z,58.46
2018-05-13T04:09:15.886Z,58.56
2018-05-13T04:09:16.487Z,58.65
2018-05-13T04:09:17.086Z,58.65
2018-05-13T04:09:17.686Z,58.56
2018-05-13T04:09:18.286Z,58.27
2018-05-13T04:09:18.886Z,58.46
2018-05-13T04:10:12.480Z,57.31
2018-05-13T04:10:13.043Z,57.50
2018-05-13T04:10:13.643Z,57.79
2018-05-13T04:10:14.241Z,57.70
2018-05-13T04:10:14.842Z,57.50
2018-05-13T04:10:15.441Z,57.79
2018-05-13T04:10:16.052Z,57.79
2018-05-13T04:10:16.641Z,57.98
2018-05-13T04:11:10.710Z,58.97
2018-05-13T04:11:11.307Z,58.94
2018-05-13T04:11:11.910Z,58.87
2018-05-13T04:11:12.507Z,58.94
2018-05-13T04:11:13.107Z,59.16
2018-05-13T04:11:13.705Z,58.75
2018-05-13T04:11:14.306Z,59.13
2018-05-13T04:12:08.363Z,58.69
2018-05-13T04:12:08.966Z,58.59
2018-05-13T04:12:09.559Z,58.78
2018-05-13T04:12:10.159Z,58.59
2018-05-13T04:12:10.758Z,58.59
2018-05-13T04:12:11.357Z,58.49
2018-05-13T04:12:11.957Z,58.46
2018-05-13T04:13:06.018Z,59.90
2018-05-13T04:13:06.610Z,60.22
2018-05-13T04:13:07.215Z,59.93
2018-05-13T04:13:07.809Z,60.00
2018-05-13T04:13:08.410Z,59.93
2018-05-13T04:13:09.010Z,59.93
2018-05-13T04:13:09.608Z,59.93
2018-05-13T04:14:03.664Z,59.93
2018-05-13T04:14:04.262Z,59.93
2018-05-13T04:14:04.862Z,60.12
2018-05-13T04:14:05.463Z,59.74
2018-05-13T04:14:06.061Z,59.93
2018-05-13T04:14:06.663Z,59.74
2018-05-13T04:14:07.260Z,59.83
2018-05-13T04:15:01.317Z,61.94
2018-05-13T04:15:01.914Z,62.33
2018-05-13T04:15:02.514Z,62.13
2018-05-13T04:15:03.115Z,62.13
2018-05-13T04:15:03.713Z,62.13
2018-05-13T04:15:04.312Z,62.23
2018-05-13T04:15:04.915Z,62.23
2018-05-13T04:15:58.989Z,61.46
2018-05-13T04:15:59.566Z,61.37
2018-05-13T04:16:00.165Z,61.37
2018-05-13T04:16:00.767Z,61.46
2018-05-13T04:16:01.365Z,61.37
2018-05-13T04:16:01.965Z,61.37
2018-05-13T04:16:02.567Z,61.18
2018-05-13T04:16:56.620Z,62.42
2018-05-13T04:16:57.218Z,61.94
2018-05-13T04:16:57.818Z,62.04
2018-05-13T04:16:58.417Z,62.23